sensor_id;sensor_type;location;lat;lon;timestamp;P1;durP1;ratioP1;P2;durP2;ratioP2
57335;SDS011;43171;50.994;18.204;2022-09-16T00:01:15;4.10;;;2.20;;
57335;SDS011;43171;50.994;18.204;2022-09-16T00:03:42;3.40;;;2.30;;
57335;SDS011;43171;50.994;18.204;2022-09-16T00:06:18;3.80;;;2.00;;
57335;SDS011;43171;50.994;18.204;2022-09-16T00:08:45;4.80;;;2.00;;
57335;SDS011;43171;50.994;18.204;2022-09-16T00:11:11;3.60;;;1.80;;
57335;SDS011;43171;50.994;18.204;2022-09-16T00:13:37;4.30;;;2.10;;
57335;SDS011;43171;50.994;18.204;2022-09-16T00:16:06;3.50;;;2.00;;
57335;SDS011;43171;50.994;18.204;2022-09-16T00:18:32;4.40;;;2.50;;
57335;SDS011;43171;50.994;18.204;2022-09-16T00:20:58;4.30;;;2.70;;
57335;SDS011;43171;50.994;18.204;2022-09-16T00:23:23;5.10;;;3.40;;
57335;SDS011;43171;50.994;18.204;2022-09-16T00:25:49;8.40;;;5.00;;
57335;SDS011;43171;50.994;18.204;2022-09-16T00:28:16;7.70;;;4.80;;
57335;SDS011;43171;50.994;18.204;2022-09-16T00:30:43;8.40;;;5.10;;
57335;SDS011;43171;50.994;18.204;2022-09-16T00:33:08;7.70;;;4.10;;
57335;SDS011;43171;50.994;18.204;2022-09-16T00:35:34;5.10;;;3.50;;
57335;SDS011;43171;50.994;18.204;2022-09-16T00:38:00;6.80;;;3.50;;
57335;SDS011;43171;50.994;18.204;2022-09-16T00:40:26;6.10;;;3.80;;
57335;SDS011;43171;50.994;18.204;2022-09-16T00:42:52;6.30;;;3.10;;
57335;SDS011;43171;50.994;18.204;2022-09-16T00:45:18;5.90;;;2.80;;
57335;SDS011;43171;50.994;18.204;2022-09-16T00:47:50;4.70;;;2.90;;
57335;SDS011;43171;50.994;18.204;2022-09-16T00:50:20;3.80;;;2.70;;
57335;SDS011;43171;50.994;18.204;2022-09-16T00:52:48;4.70;;;3.20;;
57335;SDS011;43171;50.994;18.204;2022-09-16T00:55:16;4.70;;;3.80;;
57335;SDS011;43171;50.994;18.204;2022-09-16T00:57:44;6.70;;;4.10;;
57335;SDS011;43171;50.994;18.204;2022-09-16T01:00:11;5.40;;;3.70;;
57335;SDS011;43171;50.994;18.204;2022-09-16T01:02:38;5.10;;;3.10;;
57335;SDS011;43171;50.994;18.204;2022-09-16T01:05:07;3.30;;;2.20;;
57335;SDS011;43171;50.994;18.204;2022-09-16T01:07:43;4.50;;;2.10;;
57335;SDS011;43171;50.994;18.204;2022-09-16T01:10:11;3.90;;;2.00;;
57335;SDS011;43171;50.994;18.204;2022-09-16T01:12:38;4.60;;;2.50;;
57335;SDS011;43171;50.994;18.204;2022-09-16T01:15:04;6.10;;;3.80;;
57335;SDS011;43171;50.994;18.204;2022-09-16T01:17:51;4.40;;;2.90;;
57335;SDS011;43171;50.994;18.204;2022-09-16T01:22:57;4.40;;;2.60;;
57335;SDS011;43171;50.994;18.204;2022-09-16T01:31:09;5.00;;;2.50;;
57335;SDS011;43171;50.994;18.204;2022-09-16T01:33:56;5.30;;;2.50;;
57335;SDS011;43171;50.994;18.204;2022-09-16T01:38:57;3.80;;;2.30;;
57335;SDS011;43171;50.994;18.204;2022-09-16T01:41:55;4.10;;;2.70;;
57335;SDS011;43171;50.994;18.204;2022-09-16T01:47:14;4.40;;;2.80;;
57335;SDS011;43171;50.994;18.204;2022-09-16T01:50:01;5.50;;;2.70;;
57335;SDS011;43171;50.994;18.204;2022-09-16T01:55:06;4.40;;;2.50;;
57335;SDS011;43171;50.994;18.204;2022-09-16T01:57:39;4.90;;;2.50;;
57335;SDS011;43171;50.994;18.204;2022-09-16T02:00:12;3.60;;;2.30;;
57335;SDS011;43171;50.994;18.204;2022-09-16T02:02:49;4.00;;;2.30;;
57335;SDS011;43171;50.994;18.204;2022-09-16T02:08:31;5.40;;;2.60;;
57335;SDS011;43171;50.994;18.204;2022-09-16T02:11:13;4.50;;;2.40;;
57335;SDS011;43171;50.994;18.204;2022-09-16T02:16:33;5.70;;;3.80;;
57335;SDS011;43171;50.994;18.204;2022-09-16T02:19:01;7.40;;;3.60;;
57335;SDS011;43171;50.994;18.204;2022-09-16T02:21:31;5.30;;;3.00;;
57335;SDS011;43171;50.994;18.204;2022-09-16T02:23:59;5.20;;;2.90;;
57335;SDS011;43171;50.994;18.204;2022-09-16T02:26:28;4.00;;;2.60;;
57335;SDS011;43171;50.994;18.204;2022-09-16T02:28:57;4.10;;;2.40;;
57335;SDS011;43171;50.994;18.204;2022-09-16T02:31:25;4.60;;;2.30;;
57335;SDS011;43171;50.994;18.204;2022-09-16T02:33:56;3.70;;;2.20;;
57335;SDS011;43171;50.994;18.204;2022-09-16T02:36:25;3.90;;;2.20;;
57335;SDS011;43171;50.994;18.204;2022-09-16T02:38:53;4.60;;;2.30;;
57335;SDS011;43171;50.994;18.204;2022-09-16T02:41:34;3.50;;;2.20;;
57335;SDS011;43171;50.994;18.204;2022-09-16T02:44:00;3.40;;;2.30;;
57335;SDS011;43171;50.994;18.204;2022-09-16T02:51:56;4.20;;;2.40;;
57335;SDS011;43171;50.994;18.204;2022-09-16T02:57:11;4.30;;;2.30;;
57335;SDS011;43171;50.994;18.204;2022-09-16T02:59:38;5.40;;;2.50;;
57335;SDS011;43171;50.994;18.204;2022-09-16T03:02:04;3.90;;;2.60;;
57335;SDS011;43171;50.994;18.204;2022-09-16T03:04:29;3.80;;;2.50;;
57335;SDS011;43171;50.994;18.204;2022-09-16T03:06:55;4.90;;;2.80;;
57335;SDS011;43171;50.994;18.204;2022-09-16T03:09:21;5.50;;;2.60;;
57335;SDS011;43171;50.994;18.204;2022-09-16T03:14:59;4.70;;;2.90;;
57335;SDS011;43171;50.994;18.204;2022-09-16T03:28:32;3.70;;;2.30;;
57335;SDS011;43171;50.994;18.204;2022-09-16T03:31:05;3.00;;;2.20;;
57335;SDS011;43171;50.994;18.204;2022-09-16T03:33:46;4.10;;;2.50;;
57335;SDS011;43171;50.994;18.204;2022-09-16T03:36:24;5.50;;;2.50;;
57335;SDS011;43171;50.994;18.204;2022-09-16T03:38:54;3.80;;;2.10;;
57335;SDS011;43171;50.994;18.204;2022-09-16T03:41:20;4.10;;;2.50;;
57335;SDS011;43171;50.994;18.204;2022-09-16T03:43:56;3.60;;;2.50;;
57335;SDS011;43171;50.994;18.204;2022-09-16T03:46:22;4.20;;;2.40;;
57335;SDS011;43171;50.994;18.204;2022-09-16T03:48:49;4.50;;;2.60;;
57335;SDS011;43171;50.994;18.204;2022-09-16T03:51:15;3.90;;;2.50;;
57335;SDS011;43171;50.994;18.204;2022-09-16T03:53:40;4.60;;;3.20;;
57335;SDS011;43171;50.994;18.204;2022-09-16T03:56:06;5.30;;;3.30;;
57335;SDS011;43171;50.994;18.204;2022-09-16T03:58:32;4.40;;;3.50;;
57335;SDS011;43171;50.994;18.204;2022-09-16T04:00:57;6.00;;;3.10;;
57335;SDS011;43171;50.994;18.204;2022-09-16T04:03:23;4.80;;;3.20;;
57335;SDS011;43171;50.994;18.204;2022-09-16T04:05:52;6.30;;;2.70;;
57335;SDS011;43171;50.994;18.204;2022-09-16T04:08:18;7.40;;;3.30;;
57335;SDS011;43171;50.994;18.204;2022-09-16T04:11:00;4.30;;;3.00;;
57335;SDS011;43171;50.994;18.204;2022-09-16T04:13:33;6.30;;;3.30;;
57335;SDS011;43171;50.994;18.204;2022-09-16T04:16:00;5.50;;;3.30;;
57335;SDS011;43171;50.994;18.204;2022-09-16T04:18:26;5.50;;;3.80;;
57335;SDS011;43171;50.994;18.204;2022-09-16T04:20:57;6.70;;;3.90;;
57335;SDS011;43171;50.994;18.204;2022-09-16T04:23:24;5.70;;;3.70;;
57335;SDS011;43171;50.994;18.204;2022-09-16T04:25:55;6.50;;;3.80;;
57335;SDS011;43171;50.994;18.204;2022-09-16T04:28:25;5.30;;;4.10;;
57335;SDS011;43171;50.994;18.204;2022-09-16T04:30:52;7.00;;;4.60;;
57335;SDS011;43171;50.994;18.204;2022-09-16T04:33:18;6.40;;;4.30;;
57335;SDS011;43171;50.994;18.204;2022-09-16T04:35:44;7.10;;;4.90;;
57335;SDS011;43171;50.994;18.204;2022-09-16T04:38:10;6.90;;;4.30;;
57335;SDS011;43171;50.994;18.204;2022-09-16T04:40:35;6.80;;;4.20;;
57335;SDS011;43171;50.994;18.204;2022-09-16T04:43:04;6.70;;;4.00;;
57335;SDS011;43171;50.994;18.204;2022-09-16T04:45:30;5.80;;;4.00;;
57335;SDS011;43171;50.994;18.204;2022-09-16T04:47:56;5.80;;;2.60;;
57335;SDS011;43171;50.994;18.204;2022-09-16T04:50:22;5.10;;;1.80;;
57335;SDS011;43171;50.994;18.204;2022-09-16T04:52:49;4.70;;;1.50;;
57335;SDS011;43171;50.994;18.204;2022-09-16T04:55:16;3.30;;;1.60;;
57335;SDS011;43171;50.994;18.204;2022-09-16T04:57:42;6.50;;;1.80;;
57335;SDS011;43171;50.994;18.204;2022-09-16T05:00:09;3.60;;;1.40;;
57335;SDS011;43171;50.994;18.204;2022-09-16T05:02:35;4.00;;;1.60;;
57335;SDS011;43171;50.994;18.204;2022-09-16T05:05:00;4.60;;;1.50;;
57335;SDS011;43171;50.994;18.204;2022-09-16T05:07:27;4.30;;;1.90;;
57335;SDS011;43171;50.994;18.204;2022-09-16T05:09:53;5.10;;;1.60;;
57335;SDS011;43171;50.994;18.204;2022-09-16T05:12:20;2.20;;;1.40;;
57335;SDS011;43171;50.994;18.204;2022-09-16T05:14:46;2.50;;;1.60;;
57335;SDS011;43171;50.994;18.204;2022-09-16T05:17:11;2.90;;;1.30;;
57335;SDS011;43171;50.994;18.204;2022-09-16T05:19:37;4.60;;;1.30;;
57335;SDS011;43171;50.994;18.204;2022-09-16T05:22:02;4.20;;;1.20;;
57335;SDS011;43171;50.994;18.204;2022-09-16T05:24:34;4.50;;;1.60;;
57335;SDS011;43171;50.994;18.204;2022-09-16T05:27:01;3.40;;;1.40;;
57335;SDS011;43171;50.994;18.204;2022-09-16T05:29:27;3.70;;;1.40;;
57335;SDS011;43171;50.994;18.204;2022-09-16T05:31:52;3.50;;;1.60;;
57335;SDS011;43171;50.994;18.204;2022-09-16T05:34:19;3.70;;;1.40;;
57335;SDS011;43171;50.994;18.204;2022-09-16T05:36:46;3.10;;;1.50;;
57335;SDS011;43171;50.994;18.204;2022-09-16T05:39:14;2.90;;;1.30;;
57335;SDS011;43171;50.994;18.204;2022-09-16T05:41:42;4.20;;;1.40;;
57335;SDS011;43171;50.994;18.204;2022-09-16T05:44:09;2.80;;;1.30;;
57335;SDS011;43171;50.994;18.204;2022-09-16T05:46:34;1.80;;;1.40;;
57335;SDS011;43171;50.994;18.204;2022-09-16T05:49:00;2.50;;;1.20;;
57335;SDS011;43171;50.994;18.204;2022-09-16T05:51:26;3.80;;;1.70;;
57335;SDS011;43171;50.994;18.204;2022-09-16T05:53:52;2.30;;;1.20;;
57335;SDS011;43171;50.994;18.204;2022-09-16T05:56:22;4.30;;;1.70;;
57335;SDS011;43171;50.994;18.204;2022-09-16T05:58:50;3.50;;;1.50;;
57335;SDS011;43171;50.994;18.204;2022-09-16T06:01:19;2.60;;;1.30;;
57335;SDS011;43171;50.994;18.204;2022-09-16T06:03:47;4.40;;;1.30;;
57335;SDS011;43171;50.994;18.204;2022-09-16T06:06:22;4.10;;;1.30;;
57335;SDS011;43171;50.994;18.204;2022-09-16T06:08:56;2.80;;;1.20;;
57335;SDS011;43171;50.994;18.204;2022-09-16T06:11:23;2.30;;;1.30;;
57335;SDS011;43171;50.994;18.204;2022-09-16T06:13:53;4.80;;;1.30;;
57335;SDS011;43171;50.994;18.204;2022-09-16T06:16:21;1.80;;;1.10;;
57335;SDS011;43171;50.994;18.204;2022-09-16T06:18:47;3.10;;;1.20;;
57335;SDS011;43171;50.994;18.204;2022-09-16T06:21:13;3.00;;;1.20;;
57335;SDS011;43171;50.994;18.204;2022-09-16T06:23:38;3.10;;;1.30;;
57335;SDS011;43171;50.994;18.204;2022-09-16T06:26:06;1.60;;;1.20;;
57335;SDS011;43171;50.994;18.204;2022-09-16T06:28:33;3.60;;;1.10;;
57335;SDS011;43171;50.994;18.204;2022-09-16T06:31:07;4.50;;;1.10;;
57335;SDS011;43171;50.994;18.204;2022-09-16T06:33:37;3.50;;;1.10;;
57335;SDS011;43171;50.994;18.204;2022-09-16T06:36:04;2.60;;;0.90;;
57335;SDS011;43171;50.994;18.204;2022-09-16T06:38:30;3.50;;;1.10;;
57335;SDS011;43171;50.994;18.204;2022-09-16T06:41:02;2.90;;;1.20;;
57335;SDS011;43171;50.994;18.204;2022-09-16T06:43:29;3.10;;;1.30;;
57335;SDS011;43171;50.994;18.204;2022-09-16T06:45:58;3.90;;;1.00;;
57335;SDS011;43171;50.994;18.204;2022-09-16T06:48:25;2.80;;;1.00;;
57335;SDS011;43171;50.994;18.204;2022-09-16T06:51:02;3.60;;;1.40;;
57335;SDS011;43171;50.994;18.204;2022-09-16T06:53:29;2.90;;;1.00;;
57335;SDS011;43171;50.994;18.204;2022-09-16T06:55:59;2.70;;;0.90;;
57335;SDS011;43171;50.994;18.204;2022-09-16T06:58:26;3.10;;;1.10;;
57335;SDS011;43171;50.994;18.204;2022-09-16T07:00:57;2.50;;;1.10;;
57335;SDS011;43171;50.994;18.204;2022-09-16T07:03:23;2.70;;;1.30;;
57335;SDS011;43171;50.994;18.204;2022-09-16T07:05:56;2.50;;;1.20;;
57335;SDS011;43171;50.994;18.204;2022-09-16T07:08:22;2.70;;;1.20;;
57335;SDS011;43171;50.994;18.204;2022-09-16T07:10:58;3.50;;;1.20;;
57335;SDS011;43171;50.994;18.204;2022-09-16T07:13:45;2.00;;;1.50;;
57335;SDS011;43171;50.994;18.204;2022-09-16T07:16:12;3.90;;;1.30;;
57335;SDS011;43171;50.994;18.204;2022-09-16T07:18:42;3.00;;;1.50;;
57335;SDS011;43171;50.994;18.204;2022-09-16T07:21:09;3.60;;;1.30;;
57335;SDS011;43171;50.994;18.204;2022-09-16T07:23:37;2.50;;;1.30;;
57335;SDS011;43171;50.994;18.204;2022-09-16T07:26:05;3.10;;;1.20;;
57335;SDS011;43171;50.994;18.204;2022-09-16T07:28:32;2.90;;;1.30;;
57335;SDS011;43171;50.994;18.204;2022-09-16T07:31:01;3.40;;;1.20;;
57335;SDS011;43171;50.994;18.204;2022-09-16T07:33:29;3.00;;;1.40;;
57335;SDS011;43171;50.994;18.204;2022-09-16T07:35:57;4.40;;;1.20;;
57335;SDS011;43171;50.994;18.204;2022-09-16T07:38:25;2.10;;;1.20;;
57335;SDS011;43171;50.994;18.204;2022-09-16T07:40:51;2.20;;;1.10;;
57335;SDS011;43171;50.994;18.204;2022-09-16T07:43:17;1.90;;;1.30;;
57335;SDS011;43171;50.994;18.204;2022-09-16T07:45:42;2.10;;;1.30;;
57335;SDS011;43171;50.994;18.204;2022-09-16T07:48:08;2.10;;;1.20;;
57335;SDS011;43171;50.994;18.204;2022-09-16T07:50:34;2.50;;;1.20;;
57335;SDS011;43171;50.994;18.204;2022-09-16T07:52:59;1.70;;;1.00;;
57335;SDS011;43171;50.994;18.204;2022-09-16T07:55:25;2.60;;;1.10;;
57335;SDS011;43171;50.994;18.204;2022-09-16T07:57:51;3.70;;;1.20;;
57335;SDS011;43171;50.994;18.204;2022-09-16T08:00:17;2.60;;;1.00;;
57335;SDS011;43171;50.994;18.204;2022-09-16T08:02:43;2.20;;;1.30;;
57335;SDS011;43171;50.994;18.204;2022-09-16T08:05:08;2.70;;;1.20;;
57335;SDS011;43171;50.994;18.204;2022-09-16T08:07:34;2.90;;;1.00;;
57335;SDS011;43171;50.994;18.204;2022-09-16T08:10:00;3.00;;;1.20;;
57335;SDS011;43171;50.994;18.204;2022-09-16T08:12:26;1.70;;;1.00;;
57335;SDS011;43171;50.994;18.204;2022-09-16T08:14:57;2.10;;;1.10;;
57335;SDS011;43171;50.994;18.204;2022-09-16T08:17:24;3.20;;;1.30;;
57335;SDS011;43171;50.994;18.204;2022-09-16T08:19:50;3.40;;;1.40;;
57335;SDS011;43171;50.994;18.204;2022-09-16T08:22:16;2.30;;;1.20;;
57335;SDS011;43171;50.994;18.204;2022-09-16T08:24:41;2.10;;;1.20;;
57335;SDS011;43171;50.994;18.204;2022-09-16T08:27:07;4.00;;;1.40;;
57335;SDS011;43171;50.994;18.204;2022-09-16T08:29:32;3.40;;;1.30;;
57335;SDS011;43171;50.994;18.204;2022-09-16T08:31:58;3.20;;;1.60;;
57335;SDS011;43171;50.994;18.204;2022-09-16T08:34:24;3.50;;;1.40;;
57335;SDS011;43171;50.994;18.204;2022-09-16T08:36:49;2.90;;;1.30;;
57335;SDS011;43171;50.994;18.204;2022-09-16T08:39:15;2.60;;;1.20;;
57335;SDS011;43171;50.994;18.204;2022-09-16T08:47:25;2.10;;;1.40;;
57335;SDS011;43171;50.994;18.204;2022-09-16T08:50:09;2.60;;;1.30;;
57335;SDS011;43171;50.994;18.204;2022-09-16T08:52:40;2.70;;;1.50;;
57335;SDS011;43171;50.994;18.204;2022-09-16T09:00:44;2.50;;;1.40;;
57335;SDS011;43171;50.994;18.204;2022-09-16T09:05:56;4.80;;;1.60;;
57335;SDS011;43171;50.994;18.204;2022-09-16T09:11:06;2.60;;;1.70;;
57335;SDS011;43171;50.994;18.204;2022-09-16T09:13:58;2.20;;;1.60;;
57335;SDS011;43171;50.994;18.204;2022-09-16T09:16:36;2.70;;;1.30;;
57335;SDS011;43171;50.994;18.204;2022-09-16T09:25:40;3.90;;;1.30;;
57335;SDS011;43171;50.994;18.204;2022-09-16T09:33:54;2.00;;;1.50;;
57335;SDS011;43171;50.994;18.204;2022-09-16T09:36:36;3.00;;;1.40;;
57335;SDS011;43171;50.994;18.204;2022-09-16T09:41:53;2.30;;;1.10;;
57335;SDS011;43171;50.994;18.204;2022-09-16T09:47:39;3.10;;;1.70;;
57335;SDS011;43171;50.994;18.204;2022-09-16T09:52:53;1.20;;;0.60;;
57335;SDS011;43171;50.994;18.204;2022-09-16T09:55:21;2.80;;;0.90;;
57335;SDS011;43171;50.994;18.204;2022-09-16T09:57:58;1.30;;;0.80;;
57335;SDS011;43171;50.994;18.204;2022-09-16T10:00:33;1.10;;;0.60;;
57335;SDS011;43171;50.994;18.204;2022-09-16T10:03:08;1.10;;;0.60;;
57335;SDS011;43171;50.994;18.204;2022-09-16T10:05:35;1.30;;;0.70;;
57335;SDS011;43171;50.994;18.204;2022-09-16T10:08:03;2.10;;;0.80;;
57335;SDS011;43171;50.994;18.204;2022-09-16T10:10:33;2.40;;;1.10;;
57335;SDS011;43171;50.994;18.204;2022-09-16T10:13:06;2.10;;;0.60;;
57335;SDS011;43171;50.994;18.204;2022-09-16T10:15:35;2.80;;;0.80;;
57335;SDS011;43171;50.994;18.204;2022-09-16T10:18:01;2.60;;;0.80;;
57335;SDS011;43171;50.994;18.204;2022-09-16T10:20:39;1.40;;;0.80;;
57335;SDS011;43171;50.994;18.204;2022-09-16T10:23:11;1.80;;;0.90;;
57335;SDS011;43171;50.994;18.204;2022-09-16T10:25:39;20.80;;;15.80;;
57335;SDS011;43171;50.994;18.204;2022-09-16T10:28:23;2.90;;;1.60;;
57335;SDS011;43171;50.994;18.204;2022-09-16T10:30:51;2.00;;;1.30;;
57335;SDS011;43171;50.994;18.204;2022-09-16T10:33:24;2.50;;;1.00;;
57335;SDS011;43171;50.994;18.204;2022-09-16T10:35:54;1.80;;;0.80;;
57335;SDS011;43171;50.994;18.204;2022-09-16T10:38:23;1.40;;;0.80;;
57335;SDS011;43171;50.994;18.204;2022-09-16T10:40:56;3.40;;;1.70;;
57335;SDS011;43171;50.994;18.204;2022-09-16T10:48:18;7.20;;;3.70;;
57335;SDS011;43171;50.994;18.204;2022-09-16T10:50:52;6.90;;;3.30;;
57335;SDS011;43171;50.994;18.204;2022-09-16T10:53:43;5.00;;;1.80;;
57335;SDS011;43171;50.994;18.204;2022-09-16T10:56:06;2.80;;;1.30;;
57335;SDS011;43171;50.994;18.204;2022-09-16T10:58:41;2.90;;;1.10;;
57335;SDS011;43171;50.994;18.204;2022-09-16T11:06:27;2.50;;;1.40;;
57335;SDS011;43171;50.994;18.204;2022-09-16T11:12:00;2.50;;;0.80;;
57335;SDS011;43171;50.994;18.204;2022-09-16T11:32:12;1.40;;;0.50;;
57335;SDS011;43171;50.994;18.204;2022-09-16T11:39:56;0.50;;;0.50;;
57335;SDS011;43171;50.994;18.204;2022-09-16T11:50:27;1.70;;;0.70;;
57335;SDS011;43171;50.994;18.204;2022-09-16T11:53:24;2.10;;;0.60;;
57335;SDS011;43171;50.994;18.204;2022-09-16T11:56:00;0.90;;;0.50;;
57335;SDS011;43171;50.994;18.204;2022-09-16T12:00:59;1.30;;;0.50;;
57335;SDS011;43171;50.994;18.204;2022-09-16T12:06:19;3.20;;;0.70;;
57335;SDS011;43171;50.994;18.204;2022-09-16T12:11:23;2.80;;;0.80;;
57335;SDS011;43171;50.994;18.204;2022-09-16T12:16:35;2.50;;;0.70;;
57335;SDS011;43171;50.994;18.204;2022-09-16T12:19:09;1.30;;;0.70;;
57335;SDS011;43171;50.994;18.204;2022-09-16T12:21:39;1.10;;;0.60;;
57335;SDS011;43171;50.994;18.204;2022-09-16T12:24:25;1.10;;;0.60;;
57335;SDS011;43171;50.994;18.204;2022-09-16T12:27:23;1.30;;;0.90;;
57335;SDS011;43171;50.994;18.204;2022-09-16T12:29:59;2.70;;;0.80;;
57335;SDS011;43171;50.994;18.204;2022-09-16T12:32:34;1.70;;;0.70;;
57335;SDS011;43171;50.994;18.204;2022-09-16T12:35:12;2.10;;;0.80;;
57335;SDS011;43171;50.994;18.204;2022-09-16T12:37:45;1.30;;;0.60;;
57335;SDS011;43171;50.994;18.204;2022-09-16T12:40:35;1.80;;;0.70;;
57335;SDS011;43171;50.994;18.204;2022-09-16T12:43:17;1.60;;;1.00;;
57335;SDS011;43171;50.994;18.204;2022-09-16T12:57:16;1.80;;;1.00;;
57335;SDS011;43171;50.994;18.204;2022-09-16T13:02:39;1.90;;;0.70;;
57335;SDS011;43171;50.994;18.204;2022-09-16T13:05:15;1.60;;;0.80;;
57335;SDS011;43171;50.994;18.204;2022-09-16T13:07:48;1.70;;;0.70;;
57335;SDS011;43171;50.994;18.204;2022-09-16T13:10:17;2.10;;;0.70;;
57335;SDS011;43171;50.994;18.204;2022-09-16T13:12:51;2.50;;;0.60;;
57335;SDS011;43171;50.994;18.204;2022-09-16T13:15:26;1.30;;;0.50;;
57335;SDS011;43171;50.994;18.204;2022-09-16T13:17:53;1.60;;;0.50;;
57335;SDS011;43171;50.994;18.204;2022-09-16T13:20:24;1.50;;;0.50;;
57335;SDS011;43171;50.994;18.204;2022-09-16T13:30:55;1.60;;;0.50;;
57335;SDS011;43171;50.994;18.204;2022-09-16T13:33:22;2.20;;;0.60;;
57335;SDS011;43171;50.994;18.204;2022-09-16T13:36:01;1.70;;;0.50;;
57335;SDS011;43171;50.994;18.204;2022-09-16T13:38:36;2.10;;;0.50;;
57335;SDS011;43171;50.994;18.204;2022-09-16T13:41:03;2.30;;;0.50;;
57335;SDS011;43171;50.994;18.204;2022-09-16T13:43:30;1.00;;;0.40;;
57335;SDS011;43171;50.994;18.204;2022-09-16T13:46:02;1.40;;;0.50;;
57335;SDS011;43171;50.994;18.204;2022-09-16T13:48:32;1.60;;;0.50;;
57335;SDS011;43171;50.994;18.204;2022-09-16T13:51:01;6.30;;;1.00;;
57335;SDS011;43171;50.994;18.204;2022-09-16T13:53:35;1.30;;;0.50;;
57335;SDS011;43171;50.994;18.204;2022-09-16T14:01:42;1.60;;;0.70;;
57335;SDS011;43171;50.994;18.204;2022-09-16T14:07:09;1.40;;;0.60;;
57335;SDS011;43171;50.994;18.204;2022-09-16T14:15:28;1.10;;;0.60;;
57335;SDS011;43171;50.994;18.204;2022-09-16T14:17:59;2.30;;;0.60;;
57335;SDS011;43171;50.994;18.204;2022-09-16T14:20:26;1.00;;;0.40;;
57335;SDS011;43171;50.994;18.204;2022-09-16T14:23:03;1.20;;;0.50;;
57335;SDS011;43171;50.994;18.204;2022-09-16T14:25:31;1.60;;;0.50;;
57335;SDS011;43171;50.994;18.204;2022-09-16T14:28:20;2.20;;;0.60;;
57335;SDS011;43171;50.994;18.204;2022-09-16T14:30:57;1.90;;;0.50;;
57335;SDS011;43171;50.994;18.204;2022-09-16T14:33:26;2.40;;;0.60;;
57335;SDS011;43171;50.994;18.204;2022-09-16T14:35:54;1.50;;;0.40;;
57335;SDS011;43171;50.994;18.204;2022-09-16T14:38:29;1.60;;;0.50;;
57335;SDS011;43171;50.994;18.204;2022-09-16T14:40:58;2.10;;;0.60;;
57335;SDS011;43171;50.994;18.204;2022-09-16T14:43:23;3.40;;;0.50;;
57335;SDS011;43171;50.994;18.204;2022-09-16T14:45:53;1.10;;;0.40;;
57335;SDS011;43171;50.994;18.204;2022-09-16T14:48:21;1.00;;;0.50;;
57335;SDS011;43171;50.994;18.204;2022-09-16T14:50:52;1.70;;;0.50;;
57335;SDS011;43171;50.994;18.204;2022-09-16T14:53:35;3.80;;;0.50;;
57335;SDS011;43171;50.994;18.204;2022-09-16T14:56:01;3.20;;;0.60;;
57335;SDS011;43171;50.994;18.204;2022-09-16T14:58:27;1.80;;;0.40;;
57335;SDS011;43171;50.994;18.204;2022-09-16T15:01:00;1.80;;;0.60;;
57335;SDS011;43171;50.994;18.204;2022-09-16T15:06:15;2.20;;;0.50;;
57335;SDS011;43171;50.994;18.204;2022-09-16T15:08:45;1.00;;;0.40;;
57335;SDS011;43171;50.994;18.204;2022-09-16T15:11:25;1.60;;;0.50;;
57335;SDS011;43171;50.994;18.204;2022-09-16T15:13:53;1.50;;;0.40;;
57335;SDS011;43171;50.994;18.204;2022-09-16T15:16:20;1.00;;;0.30;;
57335;SDS011;43171;50.994;18.204;2022-09-16T15:18:51;0.70;;;0.40;;
57335;SDS011;43171;50.994;18.204;2022-09-16T15:21:24;1.60;;;0.60;;
57335;SDS011;43171;50.994;18.204;2022-09-16T15:23:53;1.60;;;0.40;;
57335;SDS011;43171;50.994;18.204;2022-09-16T15:26:22;1.70;;;0.60;;
57335;SDS011;43171;50.994;18.204;2022-09-16T15:28:50;3.00;;;0.50;;
57335;SDS011;43171;50.994;18.204;2022-09-16T15:31:27;1.70;;;0.50;;
57335;SDS011;43171;50.994;18.204;2022-09-16T15:34:02;1.50;;;0.50;;
57335;SDS011;43171;50.994;18.204;2022-09-16T15:36:43;1.50;;;0.60;;
57335;SDS011;43171;50.994;18.204;2022-09-16T15:39:20;1.60;;;0.50;;
57335;SDS011;43171;50.994;18.204;2022-09-16T15:41:48;3.60;;;0.70;;
57335;SDS011;43171;50.994;18.204;2022-09-16T15:44:18;1.30;;;0.50;;
57335;SDS011;43171;50.994;18.204;2022-09-16T15:46:48;2.20;;;0.80;;
57335;SDS011;43171;50.994;18.204;2022-09-16T15:49:15;1.80;;;0.70;;
57335;SDS011;43171;50.994;18.204;2022-09-16T15:51:44;1.90;;;0.70;;
57335;SDS011;43171;50.994;18.204;2022-09-16T15:54:25;2.10;;;0.80;;
57335;SDS011;43171;50.994;18.204;2022-09-16T15:56:58;2.40;;;0.70;;
57335;SDS011;43171;50.994;18.204;2022-09-16T16:02:01;2.40;;;0.80;;
57335;SDS011;43171;50.994;18.204;2022-09-16T16:04:32;2.10;;;0.90;;
57335;SDS011;43171;50.994;18.204;2022-09-16T16:07:02;2.40;;;0.80;;
57335;SDS011;43171;50.994;18.204;2022-09-16T16:09:33;1.40;;;0.70;;
57335;SDS011;43171;50.994;18.204;2022-09-16T16:12:08;2.30;;;0.80;;
57335;SDS011;43171;50.994;18.204;2022-09-16T16:14:39;2.20;;;0.70;;
57335;SDS011;43171;50.994;18.204;2022-09-16T16:19:31;1.10;;;0.60;;
57335;SDS011;43171;50.994;18.204;2022-09-16T16:21:57;1.50;;;0.70;;
57335;SDS011;43171;50.994;18.204;2022-09-16T16:24:24;1.70;;;0.60;;
57335;SDS011;43171;50.994;18.204;2022-09-16T16:26:50;1.00;;;0.50;;
57335;SDS011;43171;50.994;18.204;2022-09-16T16:29:16;1.50;;;0.60;;
57335;SDS011;43171;50.994;18.204;2022-09-16T16:32:01;1.20;;;0.60;;
57335;SDS011;43171;50.994;18.204;2022-09-16T16:34:36;2.20;;;0.70;;
57335;SDS011;43171;50.994;18.204;2022-09-16T16:37:03;0.90;;;0.60;;
57335;SDS011;43171;50.994;18.204;2022-09-16T16:39:29;2.10;;;0.60;;
57335;SDS011;43171;50.994;18.204;2022-09-16T16:41:55;2.00;;;0.60;;
57335;SDS011;43171;50.994;18.204;2022-09-16T16:44:21;1.50;;;0.70;;
57335;SDS011;43171;50.994;18.204;2022-09-16T16:46:48;1.80;;;0.90;;
57335;SDS011;43171;50.994;18.204;2022-09-16T16:49:15;1.70;;;0.80;;
57335;SDS011;43171;50.994;18.204;2022-09-16T16:51:41;1.30;;;1.00;;
57335;SDS011;43171;50.994;18.204;2022-09-16T16:54:09;1.80;;;1.00;;
57335;SDS011;43171;50.994;18.204;2022-09-16T16:56:35;5.20;;;3.60;;
57335;SDS011;43171;50.994;18.204;2022-09-16T16:59:04;10.90;;;6.70;;
57335;SDS011;43171;50.994;18.204;2022-09-16T17:01:33;15.00;;;8.70;;
57335;SDS011;43171;50.994;18.204;2022-09-16T17:03:59;9.30;;;5.50;;
57335;SDS011;43171;50.994;18.204;2022-09-16T17:06:27;2.40;;;1.30;;
57335;SDS011;43171;50.994;18.204;2022-09-16T17:08:54;1.70;;;1.30;;
57335;SDS011;43171;50.994;18.204;2022-09-16T17:11:20;5.80;;;3.20;;
57335;SDS011;43171;50.994;18.204;2022-09-16T17:13:47;8.30;;;4.70;;
57335;SDS011;43171;50.994;18.204;2022-09-16T17:16:15;7.00;;;4.60;;
57335;SDS011;43171;50.994;18.204;2022-09-16T17:18:43;10.10;;;7.00;;
57335;SDS011;43171;50.994;18.204;2022-09-16T17:21:10;12.10;;;8.20;;
57335;SDS011;43171;50.994;18.204;2022-09-16T17:23:39;13.80;;;8.70;;
57335;SDS011;43171;50.994;18.204;2022-09-16T17:26:05;13.30;;;9.60;;
57335;SDS011;43171;50.994;18.204;2022-09-16T17:28:33;19.40;;;14.50;;
57335;SDS011;43171;50.994;18.204;2022-09-16T17:30:59;8.90;;;6.00;;
57335;SDS011;43171;50.994;18.204;2022-09-16T17:33:25;8.60;;;5.10;;
57335;SDS011;43171;50.994;18.204;2022-09-16T17:36:00;9.30;;;5.50;;
57335;SDS011;43171;50.994;18.204;2022-09-16T17:38:31;5.10;;;2.90;;
57335;SDS011;43171;50.994;18.204;2022-09-16T17:41:00;3.10;;;2.00;;
57335;SDS011;43171;50.994;18.204;2022-09-16T17:43:27;4.40;;;3.00;;
57335;SDS011;43171;50.994;18.204;2022-09-16T17:45:55;3.80;;;2.40;;
57335;SDS011;43171;50.994;18.204;2022-09-16T17:48:22;5.20;;;2.60;;
57335;SDS011;43171;50.994;18.204;2022-09-16T17:50:48;5.70;;;2.20;;